sensor_id;sensor_type;location;lat;lon;timestamp;temperature;humidity
23305;DHT22;11821;51.456;8.844;2022-07-29T00:01:37;19.80;98.30
23305;DHT22;11821;51.456;8.844;2022-07-29T00:04:03;19.80;98.70
23305;DHT22;11821;51.456;8.844;2022-07-29T00:06:29;19.70;98.50
23305;DHT22;11821;51.456;8.844;2022-07-29T00:08:55;19.70;98.70
23305;DHT22;11821;51.456;8.844;2022-07-29T00:11:22;19.80;99.20
23305;DHT22;11821;51.456;8.844;2022-07-29T00:13:48;19.60;99.30
23305;DHT22;11821;51.456;8.844;2022-07-29T00:16:14;19.70;99.70
23305;DHT22;11821;51.456;8.844;2022-07-29T00:18:40;19.60;99.80
23305;DHT22;11821;51.456;8.844;2022-07-29T00:21:07;19.50;98.60
23305;DHT22;11821;51.456;8.844;2022-07-29T00:23:33;19.60;99.10
23305;DHT22;11821;51.456;8.844;2022-07-29T00:25:59;19.60;99.20
23305;DHT22;11821;51.456;8.844;2022-07-29T00:28:25;19.50;99.20
23305;DHT22;11821;51.456;8.844;2022-07-29T00:30:52;19.50;98.80
23305;DHT22;11821;51.456;8.844;2022-07-29T00:33:18;19.40;99.40
23305;DHT22;11821;51.456;8.844;2022-07-29T00:35:44;19.50;98.80
23305;DHT22;11821;51.456;8.844;2022-07-29T00:38:12;19.40;99.40
23305;DHT22;11821;51.456;8.844;2022-07-29T00:40:40;19.40;99.80
23305;DHT22;11821;51.456;8.844;2022-07-29T00:43:06;19.40;99.20
23305;DHT22;11821;51.456;8.844;2022-07-29T00:45:32;19.40;99.00
23305;DHT22;11821;51.456;8.844;2022-07-29T00:47:59;19.40;98.60
23305;DHT22;11821;51.456;8.844;2022-07-29T00:50:25;19.40;99.10
23305;DHT22;11821;51.456;8.844;2022-07-29T00:52:52;19.40;99.60
23305;DHT22;11821;51.456;8.844;2022-07-29T00:55:19;19.30;99.10
23305;DHT22;11821;51.456;8.844;2022-07-29T00:57:45;19.30;99.50
23305;DHT22;11821;51.456;8.844;2022-07-29T01:00:16;19.30;99.30
23305;DHT22;11821;51.456;8.844;2022-07-29T01:02:44;19.30;99.90
23305;DHT22;11821;51.456;8.844;2022-07-29T01:05:11;19.20;99.00
23305;DHT22;11821;51.456;8.844;2022-07-29T01:07:39;19.20;99.90
23305;DHT22;11821;51.456;8.844;2022-07-29T01:10:07;19.10;99.90
23305;DHT22;11821;51.456;8.844;2022-07-29T01:12:37;19.10;99.90
23305;DHT22;11821;51.456;8.844;2022-07-29T01:15:05;19.00;99.80
23305;DHT22;11821;51.456;8.844;2022-07-29T01:20:20;19.00;99.90
23305;DHT22;11821;51.456;8.844;2022-07-29T01:31:28;18.90;99.90
23305;DHT22;11821;51.456;8.844;2022-07-29T01:34:03;18.80;99.90
23305;DHT22;11821;51.456;8.844;2022-07-29T01:36:55;18.80;99.90
23305;DHT22;11821;51.456;8.844;2022-07-29T01:39:30;18.70;99.90
23305;DHT22;11821;51.456;8.844;2022-07-29T01:42:08;18.70;99.90
23305;DHT22;11821;51.456;8.844;2022-07-29T01:44:48;18.70;99.90
23305;DHT22;11821;51.456;8.844;2022-07-29T01:47:20;18.70;99.90
23305;DHT22;11821;51.456;8.844;2022-07-29T01:49:51;18.60;99.90
23305;DHT22;11821;51.456;8.844;2022-07-29T01:52:44;18.60;99.90
23305;DHT22;11821;51.456;8.844;2022-07-29T01:55:16;18.50;99.90
23305;DHT22;11821;51.456;8.844;2022-07-29T01:57:46;18.50;99.90
23305;DHT22;11821;51.456;8.844;2022-07-29T02:00:13;18.50;99.90
23305;DHT22;11821;51.456;8.844;2022-07-29T02:02:43;18.50;99.90
23305;DHT22;11821;51.456;8.844;2022-07-29T02:05:12;18.40;99.90
23305;DHT22;11821;51.456;8.844;2022-07-29T02:07:40;18.40;99.90
23305;DHT22;11821;51.456;8.844;2022-07-29T02:10:09;18.40;99.90
23305;DHT22;11821;51.456;8.844;2022-07-29T02:12:37;18.40;99.90
23305;DHT22;11821;51.456;8.844;2022-07-29T02:15:06;18.30;99.90
23305;DHT22;11821;51.456;8.844;2022-07-29T02:17:41;18.30;99.90
23305;DHT22;11821;51.456;8.844;2022-07-29T02:20:09;18.30;99.90
23305;DHT22;11821;51.456;8.844;2022-07-29T02:22:38;18.30;99.90
23305;DHT22;11821;51.456;8.844;2022-07-29T02:25:06;18.20;99.90
23305;DHT22;11821;51.456;8.844;2022-07-29T02:27:34;18.20;99.90
23305;DHT22;11821;51.456;8.844;2022-07-29T02:30:03;18.20;99.90
23305;DHT22;11821;51.456;8.844;2022-07-29T02:32:30;18.10;99.90
23305;DHT22;11821;51.456;8.844;2022-07-29T02:34:57;18.10;99.90
23305;DHT22;11821;51.456;8.844;2022-07-29T02:37:24;18.00;99.90
23305;DHT22;11821;51.456;8.844;2022-07-29T02:39:53;18.00;99.90
23305;DHT22;11821;51.456;8.844;2022-07-29T02:42:22;18.00;99.90
23305;DHT22;11821;51.456;8.844;2022-07-29T02:44:49;18.00;99.90
23305;DHT22;11821;51.456;8.844;2022-07-29T02:47:20;18.00;99.90
23305;DHT22;11821;51.456;8.844;2022-07-29T02:55:00;18.00;99.90
23305;DHT22;11821;51.456;8.844;2022-07-29T02:57:43;18.00;99.90
23305;DHT22;11821;51.456;8.844;2022-07-29T03:00:14;18.00;99.90
23305;DHT22;11821;51.456;8.844;2022-07-29T03:02:44;18.00;99.90
23305;DHT22;11821;51.456;8.844;2022-07-29T03:05:18;18.10;99.90
23305;DHT22;11821;51.456;8.844;2022-07-29T03:07:47;18.00;99.90
23305;DHT22;11821;51.456;8.844;2022-07-29T03:10:15;18.00;99.90
23305;DHT22;11821;51.456;8.844;2022-07-29T03:12:42;18.00;99.90
23305;DHT22;11821;51.456;8.844;2022-07-29T03:15:10;18.10;99.90
23305;DHT22;11821;51.456;8.844;2022-07-29T03:17:37;18.10;99.90
23305;DHT22;11821;51.456;8.844;2022-07-29T03:20:06;18.20;99.90
23305;DHT22;11821;51.456;8.844;2022-07-29T03:22:32;18.20;99.90
23305;DHT22;11821;51.456;8.844;2022-07-29T03:25:08;18.20;99.90
23305;DHT22;11821;51.456;8.844;2022-07-29T03:27:34;18.20;99.90
23305;DHT22;11821;51.456;8.844;2022-07-29T03:30:00;18.30;99.90
23305;DHT22;11821;51.456;8.844;2022-07-29T03:32:27;18.30;99.90
23305;DHT22;11821;51.456;8.844;2022-07-29T03:34:53;18.30;99.90
23305;DHT22;11821;51.456;8.844;2022-07-29T03:37:19;18.30;99.90
23305;DHT22;11821;51.456;8.844;2022-07-29T03:39:46;18.20;99.90
23305;DHT22;11821;51.456;8.844;2022-07-29T03:42:15;18.20;99.90
23305;DHT22;11821;51.456;8.844;2022-07-29T03:44:44;18.20;99.90
23305;DHT22;11821;51.456;8.844;2022-07-29T03:47:13;18.20;99.90
23305;DHT22;11821;51.456;8.844;2022-07-29T03:49:41;18.20;99.90
23305;DHT22;11821;51.456;8.844;2022-07-29T03:52:08;18.30;99.90
23305;DHT22;11821;51.456;8.844;2022-07-29T03:54:34;18.30;99.90
23305;DHT22;11821;51.456;8.844;2022-07-29T03:57:02;18.30;99.90
23305;DHT22;11821;51.456;8.844;2022-07-29T03:59:30;18.30;99.90
23305;DHT22;11821;51.456;8.844;2022-07-29T04:01:59;18.30;99.90
23305;DHT22;11821;51.456;8.844;2022-07-29T04:04:26;18.30;99.90
23305;DHT22;11821;51.456;8.844;2022-07-29T04:06:53;18.30;99.90
23305;DHT22;11821;51.456;8.844;2022-07-29T04:09:19;18.30;99.90
23305;DHT22;11821;51.456;8.844;2022-07-29T04:11:45;18.30;99.90
23305;DHT22;11821;51.456;8.844;2022-07-29T04:14:12;18.20;99.90
23305;DHT22;11821;51.456;8.844;2022-07-29T04:16:38;17.80;99.90
23305;DHT22;11821;51.456;8.844;2022-07-29T04:19:04;17.70;99.90
23305;DHT22;11821;51.456;8.844;2022-07-29T04:21:30;17.60;99.90
23305;DHT22;11821;51.456;8.844;2022-07-29T04:23:57;17.50;99.90
23305;DHT22;11821;51.456;8.844;2022-07-29T04:26:23;17.40;99.90
23305;DHT22;11821;51.456;8.844;2022-07-29T04:28:49;17.50;99.90
23305;DHT22;11821;51.456;8.844;2022-07-29T04:31:15;17.60;99.90
23305;DHT22;11821;51.456;8.844;2022-07-29T04:33:42;17.60;99.90
23305;DHT22;11821;51.456;8.844;2022-07-29T04:36:08;17.70;99.90
23305;DHT22;11821;51.456;8.844;2022-07-29T04:38:34;17.80;99.90
23305;DHT22;11821;51.456;8.844;2022-07-29T04:41:00;17.80;99.90
23305;DHT22;11821;51.456;8.844;2022-07-29T04:43:27;17.70;99.90
23305;DHT22;11821;51.456;8.844;2022-07-29T04:45:53;17.70;99.90
23305;DHT22;11821;51.456;8.844;2022-07-29T04:48:19;17.80;99.90
23305;DHT22;11821;51.456;8.844;2022-07-29T04:50:45;17.70;99.90
23305;DHT22;11821;51.456;8.844;2022-07-29T04:53:12;17.70;99.90
23305;DHT22;11821;51.456;8.844;2022-07-29T04:55:38;17.70;99.90
23305;DHT22;11821;51.456;8.844;2022-07-29T04:58:04;17.80;99.90
23305;DHT22;11821;51.456;8.844;2022-07-29T05:00:30;17.80;99.90
23305;DHT22;11821;51.456;8.844;2022-07-29T05:02:56;17.80;99.90
23305;DHT22;11821;51.456;8.844;2022-07-29T05:05:23;17.80;99.90
23305;DHT22;11821;51.456;8.844;2022-07-29T05:07:49;17.80;99.90
23305;DHT22;11821;51.456;8.844;2022-07-29T05:10:15;17.80;99.90
23305;DHT22;11821;51.456;8.844;2022-07-29T05:12:41;17.90;99.90
23305;DHT22;11821;51.456;8.844;2022-07-29T05:15:08;17.90;99.90
23305;DHT22;11821;51.456;8.844;2022-07-29T05:17:34;18.00;99.90
23305;DHT22;11821;51.456;8.844;2022-07-29T05:20:01;17.90;99.90
23305;DHT22;11821;51.456;8.844;2022-07-29T05:22:27;17.90;99.90
23305;DHT22;11821;51.456;8.844;2022-07-29T05:24:53;17.90;99.90
23305;DHT22;11821;51.456;8.844;2022-07-29T05:27:19;18.00;99.90
23305;DHT22;11821;51.456;8.844;2022-07-29T05:29:45;18.00;99.90
23305;DHT22;11821;51.456;8.844;2022-07-29T05:32:12;18.00;99.90
23305;DHT22;11821;51.456;8.844;2022-07-29T05:34:38;18.00;99.90
23305;DHT22;11821;51.456;8.844;2022-07-29T05:37:05;18.00;99.90
23305;DHT22;11821;51.456;8.844;2022-07-29T05:39:31;18.00;99.90
23305;DHT22;11821;51.456;8.844;2022-07-29T05:41:57;18.10;99.90
23305;DHT22;11821;51.456;8.844;2022-07-29T05:44:23;18.00;99.90
23305;DHT22;11821;51.456;8.844;2022-07-29T05:46:50;18.00;99.90
23305;DHT22;11821;51.456;8.844;2022-07-29T05:49:16;18.00;99.90
23305;DHT22;11821;51.456;8.844;2022-07-29T05:51:42;18.10;99.90
23305;DHT22;11821;51.456;8.844;2022-07-29T05:54:08;18.10;99.90
23305;DHT22;11821;51.456;8.844;2022-07-29T05:56:36;18.20;99.90
23305;DHT22;11821;51.456;8.844;2022-07-29T05:59:03;18.20;99.90
23305;DHT22;11821;51.456;8.844;2022-07-29T06:01:29;18.20;99.90
23305;DHT22;11821;51.456;8.844;2022-07-29T06:03:55;18.30;99.90
23305;DHT22;11821;51.456;8.844;2022-07-29T06:06:21;18.30;99.90
23305;DHT22;11821;51.456;8.844;2022-07-29T06:08:48;18.30;99.90
23305;DHT22;11821;51.456;8.844;2022-07-29T06:11:14;18.30;99.90
23305;DHT22;11821;51.456;8.844;2022-07-29T06:13:41;18.40;99.90
23305;DHT22;11821;51.456;8.844;2022-07-29T06:16:07;18.40;99.90
23305;DHT22;11821;51.456;8.844;2022-07-29T06:18:33;18.50;99.90
23305;DHT22;11821;51.456;8.844;2022-07-29T06:21:07;18.50;99.90
23305;DHT22;11821;51.456;8.844;2022-07-29T06:23:34;18.50;99.90
23305;DHT22;11821;51.456;8.844;2022-07-29T06:26:00;18.60;99.90
23305;DHT22;11821;51.456;8.844;2022-07-29T06:28:27;18.50;99.90
23305;DHT22;11821;51.456;8.844;2022-07-29T06:30:54;18.60;99.90
23305;DHT22;11821;51.456;8.844;2022-07-29T06:33:20;18.50;99.90
23305;DHT22;11821;51.456;8.844;2022-07-29T06:35:46;18.60;99.90
23305;DHT22;11821;51.456;8.844;2022-07-29T06:38:13;18.60;99.90
23305;DHT22;11821;51.456;8.844;2022-07-29T06:40:44;18.70;99.90
23305;DHT22;11821;51.456;8.844;2022-07-29T06:43:36;18.80;99.90
23305;DHT22;11821;51.456;8.844;2022-07-29T06:46:09;19.00;99.90
23305;DHT22;11821;51.456;8.844;2022-07-29T06:48:35;19.20;99.90
23305;DHT22;11821;51.456;8.844;2022-07-29T06:51:03;19.40;99.90
23305;DHT22;11821;51.456;8.844;2022-07-29T06:53:29;19.40;99.90
23305;DHT22;11821;51.456;8.844;2022-07-29T06:55:56;19.50;99.90
23305;DHT22;11821;51.456;8.844;2022-07-29T06:58:24;19.50;99.90
23305;DHT22;11821;51.456;8.844;2022-07-29T07:00:58;19.60;99.90
23305;DHT22;11821;51.456;8.844;2022-07-29T07:03:26;19.70;99.90
23305;DHT22;11821;51.456;8.844;2022-07-29T07:05:54;19.70;99.90
23305;DHT22;11821;51.456;8.844;2022-07-29T07:08:20;19.70;99.90
23305;DHT22;11821;51.456;8.844;2022-07-29T07:10:48;19.80;99.90
23305;DHT22;11821;51.456;8.844;2022-07-29T07:13:14;19.90;99.90
23305;DHT22;11821;51.456;8.844;2022-07-29T07:15:40;19.90;99.90
23305;DHT22;11821;51.456;8.844;2022-07-29T07:18:07;20.00;99.90
23305;DHT22;11821;51.456;8.844;2022-07-29T07:20:34;20.00;99.90
23305;DHT22;11821;51.456;8.844;2022-07-29T07:23:00;20.00;99.90
23305;DHT22;11821;51.456;8.844;2022-07-29T07:25:26;20.20;99.90
23305;DHT22;11821;51.456;8.844;2022-07-29T07:27:53;20.20;99.90
23305;DHT22;11821;51.456;8.844;2022-07-29T07:30:19;20.30;99.90
23305;DHT22;11821;51.456;8.844;2022-07-29T07:32:45;20.30;99.90
23305;DHT22;11821;51.456;8.844;2022-07-29T07:35:11;20.30;99.90
23305;DHT22;11821;51.456;8.844;2022-07-29T07:37:38;20.40;99.90
23305;DHT22;11821;51.456;8.844;2022-07-29T07:40:08;20.40;99.90
23305;DHT22;11821;51.456;8.844;2022-07-29T07:42:34;20.50;99.90
23305;DHT22;11821;51.456;8.844;2022-07-29T07:45:01;20.60;99.90
23305;DHT22;11821;51.456;8.844;2022-07-29T07:47:27;20.70;99.90
23305;DHT22;11821;51.456;8.844;2022-07-29T07:49:53;20.80;99.90
23305;DHT22;11821;51.456;8.844;2022-07-29T07:52:21;21.00;99.90
23305;DHT22;11821;51.456;8.844;2022-07-29T07:54:48;21.10;99.90
23305;DHT22;11821;51.456;8.844;2022-07-29T07:57:15;21.10;99.90
23305;DHT22;11821;51.456;8.844;2022-07-29T07:59:41;21.20;99.90
23305;DHT22;11821;51.456;8.844;2022-07-29T08:02:08;21.20;99.90
23305;DHT22;11821;51.456;8.844;2022-07-29T08:04:35;21.30;99.90
23305;DHT22;11821;51.456;8.844;2022-07-29T08:07:02;21.40;99.90
23305;DHT22;11821;51.456;8.844;2022-07-29T08:09:29;21.50;99.90
23305;DHT22;11821;51.456;8.844;2022-07-29T08:11:56;21.30;99.90
23305;DHT22;11821;51.456;8.844;2022-07-29T08:14:22;21.60;99.90
23305;DHT22;11821;51.456;8.844;2022-07-29T08:16:48;21.60;99.90
23305;DHT22;11821;51.456;8.844;2022-07-29T08:19:15;21.50;99.90
23305;DHT22;11821;51.456;8.844;2022-07-29T08:21:41;21.50;99.90
23305;DHT22;11821;51.456;8.844;2022-07-29T08:24:07;21.60;99.90
23305;DHT22;11821;51.456;8.844;2022-07-29T08:26:52;21.90;99.90
23305;DHT22;11821;51.456;8.844;2022-07-29T08:29:18;21.90;99.90
23305;DHT22;11821;51.456;8.844;2022-07-29T08:31:44;22.10;99.90
23305;DHT22;11821;51.456;8.844;2022-07-29T08:34:11;22.20;99.90
23305;DHT22;11821;51.456;8.844;2022-07-29T08:36:38;22.40;99.90
23305;DHT22;11821;51.456;8.844;2022-07-29T08:39:04;22.60;99.90
23305;DHT22;11821;51.456;8.844;2022-07-29T08:41:30;22.90;99.90
23305;DHT22;11821;51.456;8.844;2022-07-29T08:43:57;23.30;99.90
23305;DHT22;11821;51.456;8.844;2022-07-29T08:46:24;23.60;98.90
23305;DHT22;11821;51.456;8.844;2022-07-29T08:48:50;23.90;99.30
23305;DHT22;11821;51.456;8.844;2022-07-29T08:51:18;24.00;97.30
23305;DHT22;11821;51.456;8.844;2022-07-29T08:53:47;23.90;97.00
23305;DHT22;11821;51.456;8.844;2022-07-29T08:56:15;24.20;98.50
23305;DHT22;11821;51.456;8.844;2022-07-29T08:58:48;24.00;98.00
23305;DHT22;11821;51.456;8.844;2022-07-29T09:01:17;24.40;98.00
23305;DHT22;11821;51.456;8.844;2022-07-29T09:03:47;24.70;98.70
23305;DHT22;11821;51.456;8.844;2022-07-29T09:06:14;24.60;96.70
23305;DHT22;11821;51.456;8.844;2022-07-29T09:08:41;24.60;96.70
23305;DHT22;11821;51.456;8.844;2022-07-29T09:11:08;24.60;96.90
23305;DHT22;11821;51.456;8.844;2022-07-29T09:13:34;24.30;96.20
23305;DHT22;11821;51.456;8.844;2022-07-29T09:16:00;24.50;95.80
23305;DHT22;11821;51.456;8.844;2022-07-29T09:18:40;24.60;95.70
23305;DHT22;11821;51.456;8.844;2022-07-29T09:21:11;24.80;95.80
23305;DHT22;11821;51.456;8.844;2022-07-29T09:24:13;24.90;95.90
23305;DHT22;11821;51.456;8.844;2022-07-29T09:26:46;25.00;95.80
23305;DHT22;11821;51.456;8.844;2022-07-29T09:29:22;25.00;95.00
23305;DHT22;11821;51.456;8.844;2022-07-29T09:31:53;25.00;95.00
23305;DHT22;11821;51.456;8.844;2022-07-29T09:34:27;25.00;96.50
23305;DHT22;11821;51.456;8.844;2022-07-29T09:36:54;25.00;96.50
23305;DHT22;11821;51.456;8.844;2022-07-29T09:39:31;24.90;95.50
23305;DHT22;11821;51.456;8.844;2022-07-29T09:42:00;24.90;97.10
23305;DHT22;11821;51.456;8.844;2022-07-29T09:44:27;25.00;98.30
23305;DHT22;11821;51.456;8.844;2022-07-29T09:47:06;25.10;97.20
23305;DHT22;11821;51.456;8.844;2022-07-29T09:49:50;25.00;97.30
23305;DHT22;11821;51.456;8.844;2022-07-29T09:52:16;25.00;96.00
23305;DHT22;11821;51.456;8.844;2022-07-29T09:54:43;25.10;95.40
23305;DHT22;11821;51.456;8.844;2022-07-29T09:57:25;25.20;96.00
23305;DHT22;11821;51.456;8.844;2022-07-29T10:00:04;25.10;95.70
23305;DHT22;11821;51.456;8.844;2022-07-29T10:02:42;25.30;96.50
23305;DHT22;11821;51.456;8.844;2022-07-29T10:05:23;25.20;95.80
23305;DHT22;11821;51.456;8.844;2022-07-29T10:07:55;25.30;95.80
23305;DHT22;11821;51.456;8.844;2022-07-29T10:12:54;25.30;94.70
23305;DHT22;11821;51.456;8.844;2022-07-29T10:15:23;25.40;93.90
23305;DHT22;11821;51.456;8.844;2022-07-29T10:17:51;25.90;94.50
23305;DHT22;11821;51.456;8.844;2022-07-29T10:20:18;25.80;94.20
23305;DHT22;11821;51.456;8.844;2022-07-29T10:22:45;26.20;93.50
23305;DHT22;11821;51.456;8.844;2022-07-29T10:25:14;26.40;92.70
23305;DHT22;11821;51.456;8.844;2022-07-29T10:27:40;26.40;92.70
23305;DHT22;11821;51.456;8.844;2022-07-29T10:30:07;26.50;92.90
23305;DHT22;11821;51.456;8.844;2022-07-29T10:32:56;26.40;91.80
23305;DHT22;11821;51.456;8.844;2022-07-29T10:44:21;26.10;92.10
23305;DHT22;11821;51.456;8.844;2022-07-29T10:46:48;26.30;93.50
23305;DHT22;11821;51.456;8.844;2022-07-29T10:49:16;26.30;93.60
23305;DHT22;11821;51.456;8.844;2022-07-29T10:51:57;26.50;92.90
23305;DHT22;11821;51.456;8.844;2022-07-29T10:57:15;27.00;93.40
23305;DHT22;11821;51.456;8.844;2022-07-29T10:59:43;27.20;92.30
23305;DHT22;11821;51.456;8.844;2022-07-29T11:07:36;27.20;93.50
23305;DHT22;11821;51.456;8.844;2022-07-29T11:15:09;28.00;92.00
23305;DHT22;11821;51.456;8.844;2022-07-29T11:20:34;28.00;91.70
23305;DHT22;11821;51.456;8.844;2022-07-29T11:23:16;28.10;91.20
23305;DHT22;11821;51.456;8.844;2022-07-29T11:25:43;28.20;90.00
23305;DHT22;11821;51.456;8.844;2022-07-29T11:28:19;28.60;90.50
23305;DHT22;11821;51.456;8.844;2022-07-29T11:30:48;28.80;90.80
23305;DHT22;11821;51.456;8.844;2022-07-29T11:33:32;29.00;91.30
23305;DHT22;11821;51.456;8.844;2022-07-29T11:36:13;28.60;90.90
23305;DHT22;11821;51.456;8.844;2022-07-29T11:38:40;28.90;90.40
23305;DHT22;11821;51.456;8.844;2022-07-29T11:41:39;29.10;89.70
23305;DHT22;11821;51.456;8.844;2022-07-29T11:44:06;28.80;89.40
23305;DHT22;11821;51.456;8.844;2022-07-29T11:46:51;28.50;90.00
23305;DHT22;11821;51.456;8.844;2022-07-29T11:49:25;28.70;91.20
23305;DHT22;11821;51.456;8.844;2022-07-29T11:51:53;28.80;90.30
23305;DHT22;11821;51.456;8.844;2022-07-29T11:54:34;28.70;91.20
23305;DHT22;11821;51.456;8.844;2022-07-29T11:57:00;28.30;90.10
23305;DHT22;11821;51.456;8.844;2022-07-29T11:59:27;28.40;91.20
23305;DHT22;11821;51.456;8.844;2022-07-29T12:02:00;28.70;90.70
23305;DHT22;11821;51.456;8.844;2022-07-29T12:04:26;28.90;90.20
23305;DHT22;11821;51.456;8.844;2022-07-29T12:06:54;29.20;89.00
23305;DHT22;11821;51.456;8.844;2022-07-29T12:09:21;29.40;88.50
23305;DHT22;11821;51.456;8.844;2022-07-29T12:11:47;29.90;88.90
23305;DHT22;11821;51.456;8.844;2022-07-29T12:14:27;30.00;88.40
23305;DHT22;11821;51.456;8.844;2022-07-29T12:16:53;30.00;88.70
23305;DHT22;11821;51.456;8.844;2022-07-29T12:19:19;29.80;89.00
23305;DHT22;11821;51.456;8.844;2022-07-29T12:21:51;29.90;90.10
23305;DHT22;11821;51.456;8.844;2022-07-29T12:24:18;30.10;88.90
23305;DHT22;11821;51.456;8.844;2022-07-29T12:26:52;30.30;87.50
23305;DHT22;11821;51.456;8.844;2022-07-29T12:29:19;30.30;85.30
23305;DHT22;11821;51.456;8.844;2022-07-29T12:31:46;30.50;84.30
23305;DHT22;11821;51.456;8.844;2022-07-29T12:34:15;30.50;85.50
23305;DHT22;11821;51.456;8.844;2022-07-29T12:36:42;30.60;86.70
23305;DHT22;11821;51.456;8.844;2022-07-29T12:39:10;30.70;87.60
23305;DHT22;11821;51.456;8.844;2022-07-29T12:41:37;31.10;89.20
23305;DHT22;11821;51.456;8.844;2022-07-29T12:44:03;31.10;83.80
23305;DHT22;11821;51.456;8.844;2022-07-29T12:46:30;31.10;84.80
23305;DHT22;11821;51.456;8.844;2022-07-29T12:48:56;30.90;85.40
23305;DHT22;11821;51.456;8.844;2022-07-29T12:54:04;30.60;85.50
23305;DHT22;11821;51.456;8.844;2022-07-29T12:56:30;30.90;85.70
23305;DHT22;11821;51.456;8.844;2022-07-29T12:58:57;31.00;84.20
23305;DHT22;11821;51.456;8.844;2022-07-29T13:01:23;30.60;83.90
23305;DHT22;11821;51.456;8.844;2022-07-29T13:03:55;30.20;86.00
23305;DHT22;11821;51.456;8.844;2022-07-29T13:06:43;30.30;86.50
23305;DHT22;11821;51.456;8.844;2022-07-29T13:09:14;30.30;85.30
23305;DHT22;11821;51.456;8.844;2022-07-29T13:11:46;30.40;86.30
23305;DHT22;11821;51.456;8.844;2022-07-29T13:14:20;30.70;86.80
23305;DHT22;11821;51.456;8.844;2022-07-29T13:21:59;31.00;84.40
23305;DHT22;11821;51.456;8.844;2022-07-29T13:24:25;31.40;85.80
23305;DHT22;11821;51.456;8.844;2022-07-29T13:26:52;31.70;86.20
23305;DHT22;11821;51.456;8.844;2022-07-29T13:29:18;31.60;86.80
23305;DHT22;11821;51.456;8.844;2022-07-29T13:31:44;31.80;86.50
23305;DHT22;11821;51.456;8.844;2022-07-29T13:34:10;32.00;86.20
23305;DHT22;11821;51.456;8.844;2022-07-29T13:36:37;32.20;84.30
23305;DHT22;11821;51.456;8.844;2022-07-29T13:39:03;32.10;85.00
23305;DHT22;11821;51.456;8.844;2022-07-29T13:41:29;32.20;84.50
23305;DHT22;11821;51.456;8.844;2022-07-29T13:43:56;32.20;84.30
23305;DHT22;11821;51.456;8.844;2022-07-29T13:46:22;32.10;83.80
23305;DHT22;11821;51.456;8.844;2022-07-29T13:48:48;32.10;84.80
23305;DHT22;11821;51.456;8.844;2022-07-29T13:51:15;32.20;84.30
23305;DHT22;11821;51.456;8.844;2022-07-29T13:53:41;32.00;84.50
23305;DHT22;11821;51.456;8.844;2022-07-29T13:56:07;32.30;81.80
23305;DHT22;11821;51.456;8.844;2022-07-29T13:58:33;32.20;84.30
23305;DHT22;11821;51.456;8.844;2022-07-29T14:01:00;32.00;83.60
23305;DHT22;11821;51.456;8.844;2022-07-29T14:03:26;32.10;82.40
23305;DHT22;11821;51.456;8.844;2022-07-29T14:05:52;32.30;83.30
23305;DHT22;11821;51.456;8.844;2022-07-29T14:08:19;32.80;84.00
23305;DHT22;11821;51.456;8.844;2022-07-29T14:10:45;33.10;82.50
23305;DHT22;11821;51.456;8.844;2022-07-29T14:13:11;33.20;82.40
23305;DHT22;11821;51.456;8.844;2022-07-29T14:15:37;33.20;80.00
23305;DHT22;11821;51.456;8.844;2022-07-29T14:18:04;33.20;82.40
23305;DHT22;11821;51.456;8.844;2022-07-29T14:20:32;33.40;81.40
23305;DHT22;11821;51.456;8.844;2022-07-29T14:22:58;33.20;78.80
23305;DHT22;11821;51.456;8.844;2022-07-29T14:25:29;33.30;81.60
23305;DHT22;11821;51.456;8.844;2022-07-29T14:27:55;33.10;80.00
23305;DHT22;11821;51.456;8.844;2022-07-29T14:30:21;33.00;81.10
23305;DHT22;11821;51.456;8.844;2022-07-29T14:32:47;33.00;80.70
23305;DHT22;11821;51.456;8.844;2022-07-29T14:35:14;32.90;80.50
23305;DHT22;11821;51.456;8.844;2022-07-29T14:37:40;32.70;81.70
23305;DHT22;11821;51.456;8.844;2022-07-29T14:40:08;32.60;82.10
23305;DHT22;11821;51.456;8.844;2022-07-29T14:42:35;32.50;81.20
23305;DHT22;11821;51.456;8.844;2022-07-29T14:45:04;32.20;82.70
23305;DHT22;11821;51.456;8.844;2022-07-29T14:47:31;31.90;81.60
23305;DHT22;11821;51.456;8.844;2022-07-29T14:49:58;31.70;81.70
23305;DHT22;11821;51.456;8.844;2022-07-29T14:52:24;31.70;82.90
23305;DHT22;11821;51.456;8.844;2022-07-29T14:54:51;31.80;84.20
23305;DHT22;11821;51.456;8.844;2022-07-29T14:57:17;31.70;81.70
23305;DHT22;11821;51.456;8.844;2022-07-29T14:59:43;31.80;84.50
23305;DHT22;11821;51.456;8.844;2022-07-29T15:02:12;31.60;82.70
23305;DHT22;11821;51.456;8.844;2022-07-29T15:04:39;31.60;83.60
23305;DHT22;11821;51.456;8.844;2022-07-29T15:07:05;31.50;84.60
23305;DHT22;11821;51.456;8.844;2022-07-29T15:09:31;31.20;83.40
23305;DHT22;11821;51.456;8.844;2022-07-29T15:12:06;30.90;83.50
23305;DHT22;11821;51.456;8.844;2022-07-29T15:14:32;30.90;82.70
23305;DHT22;11821;51.456;8.844;2022-07-29T15:16:59;30.80;83.50
23305;DHT22;11821;51.456;8.844;2022-07-29T15:19:25;30.80;85.10
23305;DHT22;11821;51.456;8.844;2022-07-29T15:21:51;30.70;85.30
23305;DHT22;11821;51.456;8.844;2022-07-29T15:24:18;30.80;84.60
23305;DHT22;11821;51.456;8.844;2022-07-29T15:26:45;30.90;85.00
23305;DHT22;11821;51.456;8.844;2022-07-29T15:29:12;30.90;83.50
23305;DHT22;11821;51.456;8.844;2022-07-29T15:31:38;30.90;85.90
23305;DHT22;11821;51.456;8.844;2022-07-29T15:34:04;30.80;85.10
23305;DHT22;11821;51.456;8.844;2022-07-29T15:36:31;30.60;81.80
23305;DHT22;11821;51.456;8.844;2022-07-29T15:38:57;30.50;85.20
23305;DHT22;11821;51.456;8.844;2022-07-29T15:41:23;30.50;86.20
23305;DHT22;11821;51.456;8.844;2022-07-29T15:43:49;30.50;84.10
23305;DHT22;11821;51.456;8.844;2022-07-29T15:46:18;30.40;84.30
23305;DHT22;11821;51.456;8.844;2022-07-29T15:49:04;30.30;86.40
23305;DHT22;11821;51.456;8.844;2022-07-29T15:51:31;30.10;85.80
23305;DHT22;11821;51.456;8.844;2022-07-29T15:53:58;30.00;85.30
23305;DHT22;11821;51.456;8.844;2022-07-29T15:56:26;29.90;86.70
23305;DHT22;11821;51.456;8.844;2022-07-29T15:58:52;30.00;87.20
23305;DHT22;11821;51.456;8.844;2022-07-29T16:01:19;29.90;88.50
23305;DHT22;11821;51.456;8.844;2022-07-29T16:03:45;29.80;87.80
23305;DHT22;11821;51.456;8.844;2022-07-29T16:06:12;29.70;85.10
23305;DHT22;11821;51.456;8.844;2022-07-29T16:08:38;29.40;86.10
23305;DHT22;11821;51.456;8.844;2022-07-29T16:11:04;29.40;86.60
23305;DHT22;11821;51.456;8.844;2022-07-29T16:13:30;29.30;88.70
23305;DHT22;11821;51.456;8.844;2022-07-29T16:15:57;29.20;89.60
23305;DHT22;11821;51.456;8.844;2022-07-29T16:18:23;29.00;89.10
23305;DHT22;11821;51.456;8.844;2022-07-29T16:20:49;29.10;87.10
23305;DHT22;11821;51.456;8.844;2022-07-29T16:23:15;29.00;87.10
23305;DHT22;11821;51.456;8.844;2022-07-29T16:25:42;29.00;90.60
23305;DHT22;11821;51.456;8.844;2022-07-29T16:28:08;28.90;90.00
23305;DHT22;11821;51.456;8.844;2022-07-29T16:30:35;28.90;91.10